createdAt,value
2019-03-28T00:00:35.253Z,43.90
2019-03-28T00:03:03.813Z,51.77
2019-03-28T00:05:33.098Z,46.37
2019-03-28T00:08:01.658Z,43.70
2019-03-28T00:10:30.283Z,43.43
2019-03-28T00:12:58.841Z,45.93
2019-03-28T00:15:27.472Z,46.33
2019-03-28T00:17:56.006Z,47.17
2019-03-28T00:20:24.579Z,44.73
2019-03-28T00:23:04.015Z,43.10
2019-03-28T00:25:32.971Z,44.10
2019-03-28T00:28:01.493Z,44.93
2019-03-28T00:30:30.132Z,43.20
2019-03-28T00:32:58.695Z,43.90
2019-03-28T00:35:27.249Z,44.37
2019-03-28T00:37:55.827Z,42.00
2019-03-28T00:40:24.458Z,45.50
2019-03-28T00:42:53.041Z,44.57
2019-03-28T00:45:21.678Z,41.97
2019-03-28T00:47:50.211Z,44.63
2019-03-28T00:50:18.843Z,40.43
2019-03-28T00:52:47.487Z,45.07
2019-03-28T00:55:16.075Z,47.73
2019-03-28T00:57:44.631Z,48.70
2019-03-28T01:00:15.319Z,45.23
2019-03-28T01:02:44.060Z,41.07
2019-03-28T01:05:13.866Z,47.80
2019-03-28T01:07:42.509Z,50.53
2019-03-28T01:10:12.138Z,47.33
2019-03-28T01:12:41.697Z,46.23
2019-03-28T01:15:10.689Z,50.10
2019-03-28T01:17:39.259Z,45.93
2019-03-28T01:20:14.580Z,44.57
2019-03-28T01:22:44.038Z,49.90
2019-03-28T01:25:14.985Z,53.20
2019-03-28T01:27:43.581Z,50.43
2019-03-28T01:30:12.202Z,48.57
2019-03-28T01:32:40.824Z,52.70
2019-03-28T01:35:09.552Z,54.30
2019-03-28T01:37:38.118Z,51.30
2019-03-28T01:40:07.353Z,53.70
2019-03-28T01:42:36.031Z,54.67
2019-03-28T01:45:06.435Z,59.60
2019-03-28T01:47:35.025Z,49.70
2019-03-28T01:50:05.009Z,49.77
2019-03-28T01:52:33.563Z,51.33
2019-03-28T01:55:02.214Z,55.13
2019-03-28T01:57:30.783Z,54.50
2019-03-28T01:59:59.337Z,56.50
2019-03-28T02:02:27.923Z,56.80
2019-03-28T02:04:56.536Z,54.43
2019-03-28T02:07:25.251Z,53.77
2019-03-28T02:09:53.935Z,52.30
2019-03-28T02:12:22.539Z,53.13
2019-03-28T02:14:51.105Z,55.73
2019-03-28T02:17:19.664Z,59.93
2019-03-28T02:19:48.229Z,54.13
2019-03-28T02:22:16.831Z,53.93
2019-03-28T02:24:45.390Z,62.33
2019-03-28T02:27:23.444Z,55.07
2019-03-28T02:29:44.239Z,56.70
2019-03-28T02:32:12.867Z,57.87
2019-03-28T02:34:41.442Z,58.23
2019-03-28T02:37:12.186Z,54.43
2019-03-28T02:39:40.749Z,61.33
2019-03-28T02:42:09.309Z,60.67
2019-03-28T02:44:37.897Z,61.17
2019-03-28T02:47:06.464Z,58.17
2019-03-28T02:49:35.026Z,59.80
2019-03-28T02:52:03.623Z,61.53
2019-03-28T02:54:32.166Z,63.37
2019-03-28T02:57:00.730Z,62.70
2019-03-28T02:59:29.294Z,62.17
2019-03-28T03:01:57.871Z,65.63
2019-03-28T03:04:26.429Z,62.23
2019-03-28T03:06:55.020Z,65.37
2019-03-28T03:09:23.576Z,63.97
2019-03-28T03:11:52.130Z,71.60
2019-03-28T03:14:20.747Z,61.13
2019-03-28T03:16:49.299Z,71.17
2019-03-28T03:19:17.862Z,65.40
2019-03-28T03:21:46.447Z,61.93
2019-03-28T03:24:15.590Z,67.40
2019-03-28T03:26:44.190Z,63.07
2019-03-28T03:29:12.732Z,66.43
2019-03-28T03:31:41.318Z,66.93
2019-03-28T03:34:09.929Z,61.73
2019-03-28T03:36:38.494Z,65.40
2019-03-28T03:39:08.390Z,66.80
2019-03-28T03:41:37.076Z,64.70
2019-03-28T03:44:07.195Z,61.63
2019-03-28T03:46:35.897Z,63.30
2019-03-28T03:49:04.862Z,61.87
2019-03-28T03:51:33.741Z,62.83
2019-03-28T03:54:02.321Z,61.67
2019-03-28T03:56:30.892Z,63.10
2019-03-28T03:58:59.497Z,63.27
2019-03-28T04:01:28.071Z,63.30
2019-03-28T04:03:56.642Z,59.50
2019-03-28T04:09:57.336Z,66.23
2019-03-28T04:12:25.942Z,63.10
2019-03-28T04:14:54.560Z,56.63
2019-03-28T04:17:23.246Z,59.63
2019-03-28T04:19:51.836Z,60.73
2019-03-28T04:22:20.815Z,61.63
2019-03-28T04:24:49.434Z,57.23
2019-03-28T04:27:18.050Z,62.70
2019-03-28T04:29:46.673Z,64.87
2019-03-28T04:32:15.293Z,60.10
2019-03-28T04:34:43.933Z,59.70
2019-03-28T04:37:12.548Z,59.27
2019-03-28T04:39:41.219Z,61.47
2019-03-28T04:42:09.838Z,64.67
2019-03-28T04:44:38.569Z,58.43
2019-03-28T04:47:07.215Z,60.77
2019-03-28T04:49:35.825Z,58.97
2019-03-28T04:52:04.501Z,56.60
2019-03-28T04:54:33.117Z,58.93
2019-03-28T04:57:02.304Z,55.83
2019-03-28T04:59:30.957Z,58.63
2019-03-28T05:02:03.254Z,54.47
2019-03-28T05:04:29.840Z,57.27
2019-03-28T05:06:58.479Z,55.53
2019-03-28T05:09:27.081Z,60.83
2019-03-28T05:11:56.019Z,58.20
2019-03-28T05:14:24.673Z,59.83
2019-03-28T05:16:53.281Z,56.80
2019-03-28T05:19:21.895Z,55.07
2019-03-28T05:21:50.511Z,60.50
2019-03-28T05:24:19.121Z,56.13
2019-03-28T05:26:47.769Z,58.13
2019-03-28T05:29:16.405Z,56.90
2019-03-28T05:31:45.013Z,53.50
2019-03-28T05:34:20.806Z,54.87
2019-03-28T05:36:52.100Z,54.03
2019-03-28T05:39:20.087Z,52.77
2019-03-28T05:41:49.245Z,54.30
2019-03-28T05:44:17.893Z,50.63
2019-03-28T05:46:46.576Z,50.13
2019-03-28T05:49:15.341Z,51.93
2019-03-28T05:51:43.982Z,52.03
2019-03-28T05:54:12.526Z,53.13
2019-03-28T05:56:41.130Z,50.87
2019-03-28T05:59:11.195Z,52.83
2019-03-28T06:01:40.108Z,48.30
2019-03-28T06:04:10.292Z,43.93
2019-03-28T06:06:39.045Z,46.23
2019-03-28T06:09:07.843Z,43.33
2019-03-28T06:11:36.472Z,43.93
2019-03-28T06:14:05.475Z,45.07
2019-03-28T06:16:34.042Z,46.97
2019-03-28T06:19:03.008Z,41.80
2019-03-28T06:21:32.871Z,36.93
2019-03-28T06:24:01.419Z,36.73
2019-03-28T06:26:29.987Z,38.20
2019-03-28T06:28:59.955Z,37.50
2019-03-28T06:31:29.560Z,36.50
2019-03-28T06:33:58.202Z,32.20
2019-03-28T06:36:26.908Z,32.93
2019-03-28T06:38:56.528Z,37.80
2019-03-28T06:41:25.125Z,35.10
2019-03-28T06:43:53.839Z,33.63
2019-03-28T06:46:22.403Z,36.17
2019-03-28T06:48:50.955Z,42.87
2019-03-28T06:51:19.521Z,37.60
2019-03-28T06:53:48.091Z,34.73
2019-03-28T06:56:17.335Z,35.60
2019-03-28T06:58:46.199Z,35.57
2019-03-28T07:01:15.938Z,36.10
2019-03-28T07:03:47.408Z,36.50
2019-03-28T07:06:18.910Z,38.77
2019-03-28T07:08:49.104Z,50.90
2019-03-28T07:11:21.283Z,51.90
2019-03-28T07:13:49.854Z,62.20
2019-03-28T07:16:21.038Z,53.63
2019-03-28T07:18:48.964Z,67.13
2019-03-28T07:21:18.243Z,62.63
2019-03-28T07:23:47.567Z,62.93
2019-03-28T07:26:16.172Z,62.10
2019-03-28T07:28:44.741Z,51.97
2019-03-28T07:31:14.834Z,56.93
2019-03-28T07:33:43.403Z,50.77
2019-03-28T07:36:11.957Z,46.03
2019-03-28T07:38:40.967Z,46.53
2019-03-28T07:41:12.540Z,50.13
2019-03-28T07:43:41.903Z,51.70
2019-03-28T07:46:11.167Z,55.60
2019-03-28T07:48:41.011Z,50.63
2019-03-28T07:51:12.756Z,41.20
2019-03-28T07:53:41.344Z,37.93
2019-03-28T07:56:10.710Z,36.87
2019-03-28T07:58:39.873Z,32.47
2019-03-28T08:01:08.425Z,27.57
2019-03-28T08:03:39.953Z,31.77
2019-03-28T08:06:12.945Z,29.27
2019-03-28T08:08:44.168Z,34.40
2019-03-28T08:11:13.031Z,29.60
2019-03-28T08:13:44.619Z,33.07
2019-03-28T08:16:14.692Z,27.53
2019-03-28T08:18:45.391Z,30.50
2019-03-28T08:21:16.195Z,39.10
2019-03-28T08:23:44.795Z,36.80
2019-03-28T08:26:14.544Z,23.20
2019-03-28T08:28:43.768Z,24.70
2019-03-28T08:31:12.377Z,19.40
2019-03-28T08:33:42.746Z,18.87
2019-03-28T08:36:13.427Z,21.37
2019-03-28T08:38:42.293Z,21.97
2019-03-28T08:41:11.859Z,18.93
2019-03-28T08:43:43.192Z,17.90
2019-03-28T08:46:11.851Z,16.60
2019-03-28T08:48:40.444Z,16.57
2019-03-28T08:51:09.011Z,27.83
2019-03-28T08:53:40.553Z,26.27
2019-03-28T08:56:11.237Z,24.97
2019-03-28T08:58:42.021Z,16.97
2019-03-28T09:01:11.907Z,19.90
2019-03-28T09:03:40.492Z,14.90
2019-03-28T09:06:12.103Z,12.33
2019-03-28T09:08:40.745Z,13.77
2019-03-28T09:11:10.619Z,13.73
2019-03-28T09:13:39.802Z,16.07
2019-03-28T09:16:09.893Z,12.73
2019-03-28T09:18:41.555Z,14.37
2019-03-28T09:21:15.687Z,17.87
2019-03-28T09:23:47.754Z,18.20
2019-03-28T09:26:21.618Z,19.93
2019-03-28T09:29:47.981Z,19.97
2019-03-28T09:32:16.629Z,23.90
2019-03-28T09:34:46.647Z,20.90
2019-03-28T09:38:09.847Z,20.70
2019-03-28T09:40:31.213Z,19.10
2019-03-28T09:43:01.095Z,20.37
2019-03-28T09:53:37.077Z,18.03
2019-03-28T09:56:05.643Z,16.63
